Time;durP1;ratioP1;P1;durP2;ratioP2;P2;SDS_P1;SDS_P2;PMS_P1;PMS_P2;Temp;Humidity;BMP_temperature;BMP_pressure;BME280_temperature;BME280_humidity;BME280_pressure;Samples;Min_cycle;Max_cycle;Signal;HPM_P1;HPM_P2
2021/03/12 00:00:46;;;;;;;2.10;1.10;;;6.30;44.50;;;;;;5068582;28;20216;-72
2021/03/12 00:03:16;;;;;;;3.38;0.98;;;6.30;44.20;;;;;;5070577;28;20178;-72
2021/03/12 00:05:51;;;;;;;1.70;0.80;;;6.30;44.20;;;;;;5069297;28;20238;-72
2021/03/12 00:08:18;;;;;;;1.30;0.63;;;6.40;43.80;;;;;;5076870;28;20186;-72
2021/03/12 00:10:44;;;;;;;9.10;0.80;;;6.40;42.90;;;;;;5078892;28;20255;-72
2021/03/12 00:13:11;;;;;;;1.92;0.90;;;6.50;42.50;;;;;;5078697;28;20181;-72
2021/03/12 00:15:37;;;;;;;1.48;0.75;;;6.50;42.30;;;;;;5075268;28;20194;-73
2021/03/12 00:18:03;;;;;;;1.30;0.73;;;6.50;42.40;;;;;;5072509;28;20172;-73
2021/03/12 00:20:34;;;;;;;1.58;0.77;;;6.50;42.10;;;;;;5071077;28;20753;-72
2021/03/12 00:23:00;;;;;;;2.00;0.73;;;6.50;42.50;;;;;;5071458;28;20174;-72
2021/03/12 00:25:34;;;;;;;1.43;0.83;;;6.60;42.30;;;;;;5073914;28;20632;-73
2021/03/12 00:27:59;;;;;;;1.55;0.70;;;6.60;42.20;;;;;;5072591;28;20421;-73
2021/03/12 00:30:25;;;;;;;1.63;1.07;;;6.60;42.30;;;;;;5073257;28;20678;-73
2021/03/12 00:32:50;;;;;;;2.83;1.10;;;6.60;42.50;;;;;;5072377;28;20220;-73
2021/03/12 00:35:16;;;;;;;1.03;0.60;;;6.60;42.70;;;;;;5073588;28;20455;-73
2021/03/12 00:37:42;;;;;;;4.17;1.27;;;6.60;42.60;;;;;;5073799;28;20174;-73
2021/03/12 00:40:11;;;;;;;1.60;0.83;;;6.60;42.40;;;;;;5071927;28;20209;-73
2021/03/12 00:42:36;;;;;;;2.55;0.75;;;6.50;43.00;;;;;;5072072;28;20179;-73
2021/03/12 00:45:02;;;;;;;4.73;0.80;;;6.60;43.20;;;;;;5072106;28;20296;-73
2021/03/12 00:47:28;;;;;;;4.38;0.90;;;6.60;43.30;;;;;;5073447;28;20231;-73
2021/03/12 00:49:53;;;;;;;1.20;0.70;;;6.60;43.30;;;;;;5071710;28;20235;-73
2021/03/12 00:52:19;;;;;;;2.13;0.67;;;6.60;43.10;;;;;;5073423;28;20170;-73
2021/03/12 00:54:44;;;;;;;2.13;0.80;;;6.60;42.40;;;;;;5072097;28;20198;-73
2021/03/12 00:57:10;;;;;;;1.73;0.60;;;6.60;42.30;;;;;;5075701;28;20173;-73
2021/03/12 00:59:35;;;;;;;9.13;1.50;;;6.60;41.90;;;;;;5076171;28;20257;-73
2021/03/12 01:02:01;;;;;;;1.30;0.53;;;6.60;41.80;;;;;;5073303;28;20184;-72
2021/03/12 01:04:27;;;;;;;1.10;0.60;;;6.60;41.70;;;;;;5073144;28;20283;-73
2021/03/12 01:06:52;;;;;;;1.17;0.60;;;6.60;41.10;;;;;;5073175;28;20202;-73
2021/03/12 01:09:18;;;;;;;3.23;0.93;;;6.60;40.70;;;;;;5072281;28;20806;-73
2021/03/12 01:11:44;;;;;;;1.93;0.93;;;6.60;39.40;;;;;;5073062;28;20261;-73
2021/03/12 01:14:09;;;;;;;2.33;0.80;;;6.60;39.40;;;;;;5072864;28;20194;-73
2021/03/12 01:16:35;;;;;;;3.23;0.93;;;6.70;39.10;;;;;;5073034;28;20203;-73
2021/03/12 01:19:00;;;;;;;1.77;0.90;;;6.60;38.80;;;;;;5071017;28;20177;-73
2021/03/12 01:21:26;;;;;;;1.50;0.50;;;6.70;39.10;;;;;;5071392;28;20182;-73
2021/03/12 01:23:51;;;;;;;2.40;0.83;;;6.60;38.50;;;;;;5072751;28;20183;-73
2021/03/12 01:26:17;;;;;;;2.77;0.80;;;6.70;38.40;;;;;;5071496;28;20179;-73
2021/03/12 01:28:43;;;;;;;3.23;0.97;;;6.60;38.10;;;;;;5071242;28;20185;-73
2021/03/12 01:31:09;;;;;;;1.30;0.70;;;6.60;38.60;;;;;;5072453;28;20695;-73
2021/03/12 01:33:34;;;;;;;1.50;0.80;;;6.60;38.50;;;;;;5072582;28;20591;-73
2021/03/12 01:36:00;;;;;;;1.10;0.50;;;6.50;38.60;;;;;;5072631;28;20845;-73
2021/03/12 01:38:25;;;;;;;1.40;0.67;;;6.60;38.20;;;;;;5072510;28;20170;-73
2021/03/12 01:40:51;;;;;;;1.40;0.57;;;6.60;38.10;;;;;;5070482;28;20555;-73
2021/03/12 01:43:18;;;;;;;4.03;0.90;;;6.60;37.40;;;;;;5072399;28;20186;-73
2021/03/12 01:45:46;;;;;;;1.63;0.90;;;6.60;36.80;;;;;;5072204;28;20289;-73
2021/03/12 01:48:15;;;;;;;1.60;0.80;;;6.50;36.40;;;;;;5072147;28;20188;-73
2021/03/12 01:50:44;;;;;;;5.43;0.95;;;6.50;36.60;;;;;;5071577;28;20207;-73
2021/03/12 01:53:14;;;;;;;1.95;0.70;;;6.50;36.00;;;;;;5072617;28;20189;-73
2021/03/12 01:55:40;;;;;;;5.18;1.38;;;6.50;36.30;;;;;;5071966;28;20204;-73
2021/03/12 01:58:06;;;;;;;2.23;0.83;;;6.40;36.10;;;;;;5071133;28;20540;-73
2021/03/12 02:00:33;;;;;;;7.05;1.35;;;6.40;36.20;;;;;;5071362;28;20498;-73
2021/03/12 02:02:59;;;;;;;9.73;1.23;;;6.40;36.60;;;;;;5070745;28;20186;-73
2021/03/12 02:05:25;;;;;;;2.90;1.20;;;6.40;36.20;;;;;;5071788;28;20206;-73
2021/03/12 02:07:52;;;;;;;2.30;0.95;;;6.40;35.20;;;;;;5071745;28;20590;-73
2021/03/12 02:10:21;;;;;;;1.83;0.82;;;6.30;35.00;;;;;;5071177;28;20629;-73
2021/03/12 02:13:26;;;;;;;2.25;0.95;;;6.30;35.00;;;;;;5071936;28;20189;-73
2021/03/12 02:16:09;;;;;;;2.75;1.08;;;6.20;35.00;;;;;;5070167;28;20199;-73
2021/03/12 02:19:16;;;;;;;3.10;1.35;;;6.20;34.90;;;;;;5071672;28;20170;-73
2021/03/12 02:21:46;;;;;;;2.00;1.15;;;6.30;34.00;;;;;;5012686;28;20182;-73
2021/03/12 02:24:29;;;;;;;2.08;1.08;;;6.40;34.30;;;;;;5064163;28;20730;-73
2021/03/12 02:26:59;;;;;;;3.22;1.13;;;6.40;34.20;;;;;;5071572;28;20185;-73
2021/03/12 02:29:26;;;;;;;1.90;1.20;;;6.30;34.00;;;;;;5071217;28;20202;-73
2021/03/12 02:31:54;;;;;;;5.20;1.10;;;6.30;34.00;;;;;;5071213;28;20457;-73
2021/03/12 02:34:24;;;;;;;4.00;1.15;;;6.30;34.00;;;;;;5071222;28;20317;-73
2021/03/12 02:36:55;;;;;;;2.05;1.05;;;6.30;34.00;;;;;;5071325;28;20180;-73
2021/03/12 02:39:26;;;;;;;2.05;1.05;;;6.20;34.00;;;;;;5071048;28;20639;-73
2021/03/12 02:41:55;;;;;;;2.10;1.10;;;6.20;34.00;;;;;;5071234;28;20549;-73
2021/03/12 02:44:22;;;;;;;1.95;1.27;;;6.20;34.00;;;;;;5069736;28;20194;-73
2021/03/12 02:46:49;;;;;;;5.05;1.45;;;6.20;34.00;;;;;;5069442;28;20185;-73
2021/03/12 02:49:15;;;;;;;2.30;0.70;;;6.10;34.40;;;;;;5070607;28;20175;-73
2021/03/12 02:51:44;;;;;;;3.78;1.35;;;6.00;35.40;;;;;;5071391;28;20549;-73
2021/03/12 02:54:12;;;;;;;1.40;0.73;;;6.00;35.50;;;;;;5073197;28;20289;-73
2021/03/12 02:56:38;;;;;;;2.58;0.90;;;5.90;35.90;;;;;;5074169;28;20167;-73
2021/03/12 02:59:04;;;;;;;2.00;0.90;;;5.80;35.80;;;;;;5069346;28;20238;-73
2021/03/12 03:01:31;;;;;;;1.52;0.80;;;5.80;36.10;;;;;;5071012;28;20225;-73
2021/03/12 03:03:58;;;;;;;2.60;1.05;;;5.70;36.60;;;;;;5070888;28;20539;-73
2021/03/12 03:06:24;;;;;;;2.65;1.05;;;5.60;36.80;;;;;;5070823;28;20179;-72
2021/03/12 03:08:51;;;;;;;1.85;1.00;;;5.60;37.00;;;;;;5069087;28;20182;-72
2021/03/12 03:11:17;;;;;;;1.50;0.82;;;5.60;37.20;;;;;;5069489;28;20213;-72
2021/03/12 03:13:46;;;;;;;4.88;1.02;;;5.60;37.70;;;;;;5070880;28;20295;-72
2021/03/12 03:16:31;;;;;;;4.00;1.77;;;5.60;37.90;;;;;;5070761;28;20189;-72
2021/03/12 03:18:57;;;;;;;1.48;0.60;;;5.60;37.90;;;;;;5070196;28;20239;-72
2021/03/12 03:21:25;;;;;;;2.47;1.48;;;5.50;38.20;;;;;;5069545;28;20178;-73
2021/03/12 03:23:51;;;;;;;1.50;0.70;;;5.60;38.60;;;;;;5070626;28;20166;-73
2021/03/12 03:26:16;;;;;;;3.43;0.93;;;5.50;38.50;;;;;;5070604;28;20261;-73
2021/03/12 03:28:42;;;;;;;1.97;1.20;;;5.50;38.30;;;;;;5070676;28;20550;-73
2021/03/12 03:31:08;;;;;;;2.60;0.70;;;5.50;38.40;;;;;;5068847;28;20201;-73
2021/03/12 03:33:34;;;;;;;4.10;1.77;;;5.50;38.50;;;;;;5070543;28;20171;-73
2021/03/12 03:36:00;;;;;;;3.10;1.00;;;5.50;38.60;;;;;;5069132;28;20209;-73
2021/03/12 03:38:26;;;;;;;1.70;0.95;;;5.50;38.50;;;;;;5070571;28;20223;-73
2021/03/12 03:40:52;;;;;;;2.10;0.90;;;5.40;38.40;;;;;;5070124;28;20184;-73
2021/03/12 03:43:24;;;;;;;2.50;0.87;;;5.50;38.60;;;;;;5069401;28;20225;-73
2021/03/12 03:45:50;;;;;;;2.75;0.93;;;5.50;38.50;;;;;;5069235;28;20205;-73
2021/03/12 03:48:16;;;;;;;1.98;0.90;;;5.40;38.40;;;;;;5069176;28;20190;-73
2021/03/12 03:50:43;;;;;;;2.00;0.87;;;5.50;38.50;;;;;;5070259;28;20266;-73
2021/03/12 03:53:09;;;;;;;3.67;1.60;;;5.40;38.40;;;;;;5070626;28;20473;-72
2021/03/12 03:55:35;;;;;;;1.37;0.70;;;5.40;38.70;;;;;;5070423;28;20189;-72
2021/03/12 03:58:02;;;;;;;2.78;1.30;;;5.30;38.30;;;;;;5071368;28;20212;-72
2021/03/12 04:00:28;;;;;;;2.75;0.73;;;5.30;39.70;;;;;;5073749;28;20633;-73
2021/03/12 04:02:57;;;;;;;6.88;1.25;;;5.40;38.40;;;;;;5073187;28;20177;-73
2021/03/12 04:05:23;;;;;;;1.40;0.80;;;5.40;38.40;;;;;;5074627;28;20213;-72
2021/03/12 04:07:49;;;;;;;2.90;0.93;;;5.50;38.50;;;;;;5074192;28;20311;-73
2021/03/12 04:10:16;;;;;;;5.88;1.20;;;5.60;38.30;;;;;;5072038;28;20971;-73
2021/03/12 04:12:44;;;;;;;1.63;1.00;;;5.60;37.30;;;;;;5060523;28;20652;-73
2021/03/12 04:15:10;;;;;;;1.40;0.80;;;5.70;37.70;;;;;;5074381;28;20336;-73
2021/03/12 04:17:37;;;;;;;3.28;1.00;;;5.70;36.50;;;;;;5063828;28;20190;-73
2021/03/12 04:20:05;;;;;;;2.45;1.02;;;5.80;36.00;;;;;;5053382;28;20179;-73
2021/03/12 04:22:31;;;;;;;2.00;1.00;;;5.80;35.00;;;;;;5052716;28;20182;-73
2021/03/12 04:24:59;;;;;;;3.28;1.02;;;5.90;34.00;;;;;;5053647;28;20280;-73
2021/03/12 04:27:25;;;;;;;2.55;1.25;;;5.90;33.90;;;;;;5061565;28;20193;-72
2021/03/12 04:29:51;;;;;;;2.70;1.17;;;5.90;33.50;;;;;;5060640;28;20596;-72
2021/03/12 04:32:17;;;;;;;4.63;1.50;;;5.90;32.90;;;;;;5072505;28;20419;-73
2021/03/12 04:34:43;;;;;;;2.83;1.00;;;6.00;32.00;;;;;;5059380;28;20219;-72
2021/03/12 04:37:09;;;;;;;2.13;1.20;;;6.00;31.80;;;;;;5053573;28;20264;-73
2021/03/12 04:39:35;;;;;;;1.80;0.80;;;6.00;32.10;;;;;;5052986;28;20578;-72
2021/03/12 04:42:01;;;;;;;2.17;0.98;;;6.00;31.20;;;;;;5052242;28;20238;-71
2021/03/12 04:44:26;;;;;;;4.57;1.37;;;6.00;30.30;;;;;;5053344;28;20183;-72
2021/03/12 04:46:53;;;;;;;3.00;1.20;;;5.90;30.50;;;;;;5068091;28;20178;-72
2021/03/12 04:49:19;;;;;;;2.05;1.00;;;5.90;30.80;;;;;;5071390;28;20417;-71
2021/03/12 04:51:45;;;;;;;7.18;1.45;;;5.80;30.50;;;;;;5073318;28;20204;-72
2021/03/12 04:54:15;;;;;;;1.70;1.20;;;5.80;30.10;;;;;;5071911;28;20205;-72
2021/03/12 04:56:41;;;;;;;7.95;1.45;;;5.80;30.10;;;;;;5065274;28;20233;-74
2021/03/12 04:59:07;;;;;;;4.50;1.40;;;5.80;30.40;;;;;;5051331;28;20224;-71
2021/03/12 05:01:36;;;;;;;2.42;1.10;;;5.80;30.40;;;;;;5062966;28;20174;-73
2021/03/12 05:04:05;;;;;;;2.38;1.20;;;5.70;30.80;;;;;;5073045;28;20352;-72
2021/03/12 05:06:31;;;;;;;4.40;1.48;;;5.60;30.40;;;;;;5073123;28;20221;-72
2021/03/12 05:08:57;;;;;;;3.33;1.27;;;5.60;30.90;;;;;;5072066;28;20528;-72
2021/03/12 05:11:23;;;;;;;3.92;1.25;;;5.40;30.80;;;;;;5072956;28;20577;-73
2021/03/12 05:13:50;;;;;;;2.43;1.10;;;5.30;31.00;;;;;;5062235;28;20182;-73
2021/03/12 05:16:16;;;;;;;3.40;1.60;;;5.30;31.40;;;;;;5052772;28;20171;-72
2021/03/12 05:18:42;;;;;;;2.35;1.20;;;5.20;31.50;;;;;;5052604;28;20652;-72
2021/03/12 05:21:08;;;;;;;2.27;1.20;;;5.20;31.90;;;;;;5051052;28;20281;-73
2021/03/12 05:23:34;;;;;;;3.37;1.43;;;;;;;;;;5051506;28;20328;-72
2021/03/12 05:25:59;;;;;;;2.58;1.67;;;5.10;32.00;;;;;;5052688;28;20223;-72
2021/03/12 05:28:25;;;;;;;2.50;1.00;;;5.10;32.50;;;;;;5053136;28;20675;-75
2021/03/12 05:30:51;;;;;;;2.17;1.10;;;5.00;32.50;;;;;;5054765;28;20568;-73
2021/03/12 05:33:16;;;;;;;4.83;1.50;;;5.00;32.70;;;;;;5054523;28;20183;-75
2021/03/12 05:35:42;;;;;;;3.10;1.70;;;5.00;32.70;;;;;;5055094;28;20626;-74
2021/03/12 05:38:07;;;;;;;4.10;1.17;;;5.00;32.60;;;;;;5055389;28;20202;-73
2021/03/12 05:40:33;;;;;;;1.70;0.97;;;5.10;32.50;;;;;;5056255;28;20187;-74
2021/03/12 05:43:01;;;;;;;11.93;1.93;;;5.10;32.30;;;;;;5057196;28;20201;-75
2021/03/12 05:45:27;;;;;;;4.75;2.05;;;5.00;32.40;;;;;;5055035;28;20436;-74
2021/03/12 05:47:54;;;;;;;2.70;1.00;;;5.10;32.10;;;;;;5055547;28;20258;-75
2021/03/12 05:50:20;;;;;;;2.30;1.67;;;5.10;32.40;;;;;;5064595;28;20463;-74
2021/03/12 05:52:46;;;;;;;5.00;1.63;;;5.20;32.20;;;;;;5074000;28;20796;-73
2021/03/12 05:55:15;;;;;;;3.38;2.10;;;5.30;31.90;;;;;;5074593;28;20429;-73
2021/03/12 05:57:41;;;;;;;2.55;1.45;;;5.40;31.50;;;;;;5075059;28;20678;-73
2021/03/12 06:00:08;;;;;;;4.53;1.40;;;5.40;31.40;;;;;;5073609;28;20183;-75
2021/03/12 06:02:33;;;;;;;4.18;1.70;;;5.50;31.70;;;;;;5074640;28;20515;-74
2021/03/12 06:04:59;;;;;;;3.57;1.80;;;5.60;31.60;;;;;;5074237;28;20226;-73
2021/03/12 06:07:24;;;;;;;2.57;1.40;;;5.70;31.40;;;;;;5074187;28;20174;-73
2021/03/12 06:09:50;;;;;;;7.77;2.40;;;5.80;31.40;;;;;;5064772;28;20187;-73
2021/03/12 06:12:16;;;;;;;2.90;1.77;;;5.80;31.30;;;;;;5055147;28;20584;-71
2021/03/12 06:14:49;;;;;;;2.53;1.53;;;5.80;31.00;;;;;;5052141;28;20480;-71
2021/03/12 06:17:31;;;;;;;3.38;2.13;;;5.80;31.00;;;;;;5051576;28;20341;-71
2021/03/12 06:19:57;;;;;;;5.45;1.63;;;5.80;31.00;;;;;;5061593;28;20213;-71
2021/03/12 06:22:23;;;;;;;3.30;1.73;;;5.90;31.60;;;;;;5054049;28;20182;-71
2021/03/12 06:24:49;;;;;;;2.75;1.70;;;5.90;30.80;;;;;;5056241;28;20198;-71
2021/03/12 06:27:30;;;;;;;1.80;1.40;;;6.00;30.70;;;;;;5072989;28;20211;-72
2021/03/12 06:30:00;;;;;;;2.33;1.60;;;6.00;30.00;;;;;;5072809;28;20198;-73
2021/03/12 06:32:46;;;;;;;2.17;1.30;;;6.00;30.30;;;;;;5077523;28;20172;-72
2021/03/12 06:35:17;;;;;;;2.05;1.25;;;6.10;29.70;;;;;;5083051;28;20235;-72
2021/03/12 06:37:46;;;;;;;6.05;2.05;;;6.20;29.50;;;;;;5075838;28;20175;-72
2021/03/12 06:40:18;;;;;;;3.28;1.80;;;6.30;29.40;;;;;;5070938;28;20231;-73
2021/03/12 06:43:04;;;;;;;4.70;2.10;;;6.50;29.40;;;;;;5055283;28;20263;-73
2021/03/12 06:45:51;;;;;;;6.00;2.60;;;6.50;28.70;;;;;;5055372;28;20200;-73
2021/03/12 06:48:21;;;;;;;1.60;1.30;;;6.50;28.30;;;;;;5061310;28;20187;-73
2021/03/12 06:51:11;;;;;;;2.63;1.65;;;6.50;29.30;;;;;;5062571;28;20208;-72
2021/03/12 06:53:39;;;;;;;3.25;1.88;;;6.50;28.60;;;;;;5057457;28;20666;-72
2021/03/12 06:56:08;;;;;;;2.28;1.45;;;6.40;28.70;;;;;;5054189;28;20272;-72
2021/03/12 06:58:34;;;;;;;2.75;1.42;;;6.40;29.20;;;;;;5052362;28;20254;-76
2021/03/12 07:01:01;;;;;;;3.63;1.50;;;6.40;29.20;;;;;;5057942;28;20175;-73
2021/03/12 07:03:34;;;;;;;2.70;1.15;;;6.30;29.20;;;;;;5057313;28;20167;-73
2021/03/12 07:06:04;;;;;;;2.97;1.42;;;6.20;29.10;;;;;;5053866;28;20297;-74
2021/03/12 07:08:34;;;;;;;1.75;1.00;;;6.10;29.70;;;;;;5069809;28;20578;-73
2021/03/12 07:11:00;;;;;;;3.05;1.30;;;5.90;29.80;;;;;;5066891;28;20217;-73
2021/03/12 07:13:27;;;;;;;6.55;1.27;;;5.90;30.50;;;;;;5072132;28;20709;-74
2021/03/12 07:15:55;;;;;;;1.60;1.00;;;5.80;30.50;;;;;;5070217;28;20198;-73
2021/03/12 07:18:22;;;;;;;3.80;0.98;;;5.70;31.50;;;;;;5073570;28;20170;-73
2021/03/12 07:20:48;;;;;;;2.65;1.55;;;5.90;32.40;;;;;;5061962;28;20180;-73
2021/03/12 07:23:22;;;;;;;2.33;1.00;;;6.10;32.20;;;;;;5071499;28;20225;-73
2021/03/12 07:25:50;;;;;;;2.05;1.20;;;6.30;31.00;;;;;;5081267;28;20461;-73
2021/03/12 07:28:16;;;;;;;1.50;1.10;;;6.50;30.40;;;;;;5097068;28;20608;-72
2021/03/12 07:30:44;;;;;;;2.00;1.40;;;6.60;29.40;;;;;;5073257;28;20851;-72
2021/03/12 07:33:10;;;;;;;1.80;1.40;;;6.80;29.50;;;;;;5069533;28;20207;-72
2021/03/12 07:35:37;;;;;;;1.63;1.27;;;7.10;29.70;;;;;;5056401;28;20776;-72
2021/03/12 07:38:05;;;;;;;2.30;1.70;;;7.40;29.00;;;;;;5058087;28;20473;-70
2021/03/12 07:40:32;;;;;;;2.07;1.87;;;7.60;28.00;;;;;;5066970;28;20423;-72
2021/03/12 07:42:58;;;;;;;3.20;1.90;;;7.70;27.20;;;;;;5078362;28;20454;-72
2021/03/12 07:45:24;;;;;;;5.10;2.60;;;7.80;27.00;;;;;;5077171;28;20435;-72
2021/03/12 07:47:50;;;;;;;3.33;2.30;;;7.90;26.20;;;;;;5081606;28;20436;-71
2021/03/12 07:50:37;;;;;;;2.97;2.57;;;8.10;25.60;;;;;;5081141;28;20482;-73
2021/03/12 07:53:03;;;;;;;2.93;2.60;;;8.20;25.60;;;;;;5082978;28;20887;-71
2021/03/12 07:55:34;;;;;;;3.90;3.50;;;8.40;25.50;;;;;;5072540;28;20436;-72
2021/03/12 07:58:04;;;;;;;3.87;3.50;;;8.50;25.10;;;;;;5074525;28;20466;-74
2021/03/12 08:00:30;;;;;;;3.63;3.33;;;8.60;24.20;;;;;;5090375;28;20771;-73
2021/03/12 08:03:01;;;;;;;3.13;2.87;;;8.60;25.20;;;;;;5075059;28;20432;-71
2021/03/12 08:05:31;;;;;;;3.63;3.23;;;8.70;24.60;;;;;;5075425;28;20281;-70
2021/03/12 08:07:57;;;;;;;3.07;2.87;;;8.60;24.80;;;;;;5060341;28;20772;-71
2021/03/12 08:10:23;;;;;;;6.47;2.63;;;8.70;24.60;;;;;;5055215;28;20475;-71
2021/03/12 08:12:49;;;;;;;3.20;2.90;;;8.70;25.50;;;;;;5058135;28;20427;-71
2021/03/12 08:15:25;;;;;;;7.97;3.73;;;8.80;24.70;;;;;;5073383;28;20292;-71
2021/03/12 08:17:57;;;;;;;7.63;3.50;;;8.80;24.30;;;;;;5068582;28;20482;-71
2021/03/12 08:20:22;;;;;;;3.40;3.13;;;8.80;24.00;;;;;;5052971;28;20607;-72
2021/03/12 08:22:50;;;;;;;7.73;3.80;;;8.60;24.30;;;;;;5054845;28;20996;-71
2021/03/12 08:25:44;;;;;;;4.90;2.80;;;8.40;24.30;;;;;;5055996;28;20206;-72
2021/03/12 08:28:12;;;;;;;2.90;2.60;;;8.20;25.20;;;;;;5054774;28;20452;-71
2021/03/12 08:30:38;;;;;;;2.33;2.13;;;8.00;26.20;;;;;;5053580;28;20463;-72
2021/03/12 08:33:09;;;;;;;2.20;1.67;;;7.70;27.80;;;;;;5053554;28;20947;-72
2021/03/12 08:35:35;;;;;;;3.83;2.50;;;7.60;28.60;;;;;;5070801;28;20224;-72
2021/03/12 08:38:02;;;;;;;3.50;2.50;;;7.60;28.60;;;;;;5069356;28;20427;-71
2021/03/12 08:40:28;;;;;;;2.30;2.10;;;7.70;28.60;;;;;;5073427;28;20189;-71
2021/03/12 08:43:13;;;;;;;2.60;1.97;;;7.80;28.60;;;;;;5074303;28;20513;-74
2021/03/12 08:45:51;;;;;;;3.30;2.40;;;8.00;28.10;;;;;;5076776;28;20435;-72
2021/03/12 08:48:36;;;;;;;3.10;2.47;;;8.20;27.40;;;;;;5079458;28;20483;-73
2021/03/12 08:51:20;;;;;;;4.40;2.77;;;8.40;27.00;;;;;;5067497;28;20468;-72
2021/03/12 08:53:51;;;;;;;5.07;3.03;;;8.50;25.30;;;;;;5075348;28;20443;-72
2021/03/12 08:56:27;;;;;;;3.43;2.80;;;8.30;25.60;;;;;;5075497;28;20774;-72
2021/03/12 08:58:53;;;;;;;3.50;2.60;;;8.20;26.30;;;;;;5073797;28;20916;-73
2021/03/12 09:01:24;;;;;;;6.70;2.33;;;8.10;26.30;;;;;;5059813;28;20432;-72
2021/03/12 09:03:51;;;;;;;3.50;2.30;;;8.10;26.30;;;;;;5055181;28;20252;-72
2021/03/12 09:06:19;;;;;;;5.30;2.50;;;8.00;25.60;;;;;;5054282;28;20409;-72
2021/03/12 09:08:46;;;;;;;7.70;4.47;;;8.30;26.40;;;;;;5061255;28;20460;-73
2021/03/12 09:11:17;;;;;;;3.30;3.00;;;8.60;25.80;;;;;;5072268;28;20463;-73
2021/03/12 09:13:44;;;;;;;8.40;2.93;;;8.90;25.10;;;;;;5071853;28;20435;-73
2021/03/12 09:16:11;;;;;;;5.10;3.30;;;9.00;22.70;;;;;;5074272;28;20419;-72
2021/03/12 09:18:38;;;;;;;3.73;3.10;;;8.90;23.40;;;;;;5073410;28;20424;-73
2021/03/12 09:21:06;;;;;;;4.00;3.40;;;8.80;25.20;;;;;;5073556;28;20447;-73
2021/03/12 09:23:42;;;;;;;19.97;3.43;;;8.90;24.00;;;;;;5076182;28;20511;-73
2021/03/12 09:26:15;;;;;;;3.70;2.90;;;9.10;24.40;;;;;;5072965;28;20441;-73
2021/03/12 09:28:41;;;;;;;5.00;3.40;;;9.50;23.70;;;;;;5063895;28;20442;-72
2021/03/12 09:31:09;;;;;;;3.60;2.87;;;9.70;23.80;;;;;;5055869;28;20492;-73
2021/03/12 09:33:41;;;;;;;5.70;3.70;;;9.80;21.80;;;;;;5060047;28;20429;-73
2021/03/12 09:36:38;;;;;;;5.37;3.90;;;9.90;22.20;;;;;;5058684;28;20464;-73
2021/03/12 09:39:04;;;;;;;4.30;4.00;;;10.10;21.50;;;;;;5059102;28;20414;-73
2021/03/12 09:41:30;;;;;;;4.80;4.00;;;10.20;20.70;;;;;;5063440;28;20507;-73
2021/03/12 09:44:00;;;;;;;4.70;4.30;;;10.30;19.90;;;;;;5079119;28;20272;-73
2021/03/12 09:46:31;;;;;;;4.33;4.03;;;10.30;19.60;;;;;;5075081;28;20270;-72
2021/03/12 09:48:58;;;;;;;6.97;4.60;;;10.10;18.40;;;;;;5077892;28;20430;-73
2021/03/12 09:51:24;;;;;;;4.50;4.20;;;10.00;18.80;;;;;;5077055;28;20567;-73
2021/03/12 09:53:51;;;;;;;5.53;4.30;;;10.00;16.80;;;;;;5078868;28;20432;-73
2021/03/12 09:56:22;;;;;;;4.50;4.30;;;10.00;17.30;;;;;;5079111;28;20507;-73
2021/03/12 09:58:49;;;;;;;4.97;4.67;;;10.00;17.40;;;;;;5065093;28;20869;-73
2021/03/12 10:01:17;;;;;;;5.20;4.80;;;10.10;17.60;;;;;;5075415;28;20430;-72
2021/03/12 10:03:43;;;;;;;5.90;5.50;;;10.00;16.40;;;;;;5057198;28;20527;-72
2021/03/12 10:06:10;;;;;;;4.97;4.63;;;10.00;17.70;;;;;;5064419;28;20780;-71
2021/03/12 10:09:06;;;;;;;5.30;4.57;;;10.00;17.50;;;;;;5073736;28;20478;-73
2021/03/12 10:11:47;;;;;;;4.60;4.40;;;10.00;17.80;;;;;;5071129;28;20470;-73
2021/03/12 10:14:39;;;;;;;10.57;4.80;;;10.30;17.50;;;;;;5063262;28;20883;-73
2021/03/12 10:17:09;;;;;;;5.30;5.00;;;10.60;17.40;;;;;;5052573;28;20433;-72
2021/03/12 10:19:51;;;;;;;6.20;5.60;;;10.90;16.60;;;;;;5051668;28;21115;-73
2021/03/12 10:22:33;;;;;;;6.50;6.00;;;11.00;15.00;;;;;;5052930;28;20506;-72
2021/03/12 10:24:59;;;;;;;10.53;6.20;;;10.90;14.70;;;;;;5065853;28;20444;-72
2021/03/12 10:27:28;;;;;;;5.80;5.40;;;11.00;16.40;;;;;;5071530;28;20417;-72
2021/03/12 10:29:53;;;;;;;5.90;5.40;;;11.20;16.70;;;;;;5071110;28;20175;-72
2021/03/12 10:32:19;;;;;;;5.67;5.37;;;11.50;15.10;;;;;;5071921;28;20426;-72
2021/03/12 10:34:49;;;;;;;5.50;5.10;;;11.70;15.00;;;;;;5063107;28;20220;-71
2021/03/12 10:37:17;;;;;;;6.70;6.30;;;11.90;14.20;;;;;;5049808;28;20425;-72
2021/03/12 10:39:49;;;;;;;5.77;5.47;;;12.00;14.10;;;;;;5050379;28;20412;-72
2021/03/12 10:42:16;;;;;;;5.70;5.40;;;11.70;13.30;;;;;;5046213;28;20420;-74
2021/03/12 10:44:57;;;;;;;6.40;5.90;;;11.50;12.50;;;;;;5050693;28;20829;-72
2021/03/12 10:47:24;;;;;;;5.43;5.13;;;11.30;13.10;;;;;;5051420;28;20418;-72
2021/03/12 10:49:50;;;;;;;6.17;5.77;;;11.30;15.00;;;;;;5055965;28;20450;-72
2021/03/12 10:52:30;;;;;;;6.20;5.90;;;11.60;14.40;;;;;;5050371;28;20469;-72
2021/03/12 10:54:57;;;;;;;5.90;5.60;;;11.80;12.00;;;;;;5055146;28;21002;-74
2021/03/12 10:57:35;;;;;;;6.30;5.90;;;11.80;11.80;;;;;;5072237;28;20448;-73
2021/03/12 11:00:00;;;;;;;6.43;6.03;;;11.90;12.00;;;;;;5070028;28;20415;-73
2021/03/12 11:02:36;;;;;;;7.13;6.63;;;11.90;12.60;;;;;;5070971;28;20813;-74
2021/03/12 11:05:04;;;;;;;9.77;6.80;;;11.90;11.60;;;;;;5068030;28;20293;-72
2021/03/12 11:07:29;;;;;;;6.43;6.13;;;11.70;11.70;;;;;;5059587;28;20666;-73
2021/03/12 11:09:55;;;;;;;6.50;6.20;;;11.60;12.10;;;;;;5071058;28;20422;-72
2021/03/12 11:12:21;;;;;;;6.17;5.77;;;11.80;12.80;;;;;;5071651;28;20177;-72
2021/03/12 11:14:50;;;;;;;6.47;6.00;;;12.10;13.10;;;;;;5071262;28;20608;-73
2021/03/12 11:17:16;;;;;;;6.40;6.10;;;12.20;10.80;;;;;;5065216;28;20427;-71
2021/03/12 11:19:41;;;;;;;7.90;6.67;;;12.00;11.10;;;;;;5069901;28;20411;-72
2021/03/12 11:22:07;;;;;;;6.10;5.80;;;11.90;11.30;;;;;;5070126;28;20188;-72
2021/03/12 11:24:32;;;;;;;6.27;5.97;;;11.90;11.80;;;;;;5070806;28;20202;-74
2021/03/12 11:26:58;;;;;;;6.30;5.87;;;12.00;11.90;;;;;;5052693;28;20194;-72
2021/03/12 11:29:25;;;;;;;6.83;6.53;;;12.30;11.60;;;;;;5050328;28;20182;-72
2021/03/12 11:31:51;;;;;;;7.33;6.93;;;12.30;11.30;;;;;;5051571;28;20459;-73
2021/03/12 11:34:16;;;;;;;7.00;6.50;;;12.20;10.60;;;;;;5054435;28;20467;-72
2021/03/12 11:36:42;;;;;;;6.87;6.43;;;11.90;11.00;;;;;;5069945;28;20400;-72
2021/03/12 11:39:08;;;;;;;7.07;6.53;;;11.70;11.90;;;;;;5065024;28;20176;-72
2021/03/12 11:41:34;;;;;;;7.90;5.60;;;11.30;14.20;;;;;;5050938;28;20534;-73
2021/03/12 11:44:00;;;;;;;4.50;4.10;;;10.70;19.40;;;;;;5061777;28;20508;-72
2021/03/12 11:46:25;;;;;;;4.03;3.73;;;10.10;22.70;;;;;;5074921;28;20447;-72
2021/03/12 11:48:51;;;;;;;5.93;3.33;;;9.50;24.10;;;;;;5072358;28;20415;-72
2021/03/12 11:51:16;;;;;;;2.87;2.57;;;9.00;26.20;;;;;;5071529;28;20206;-72
2021/03/12 11:53:42;;;;;;;4.93;2.30;;;8.90;27.90;;;;;;5072960;28;20193;-71
2021/03/12 11:56:08;;;;;;;5.80;2.23;;;8.90;28.80;;;;;;5070783;28;20217;-72
2021/03/12 11:58:33;;;;;;;2.30;2.00;;;8.70;28.70;;;;;;5084602;28;20621;-72
2021/03/12 12:00:59;;;;;;;2.30;1.83;;;8.70;29.60;;;;;;5073178;28;20205;-71
2021/03/12 12:03:25;;;;;;;4.67;1.63;;;8.90;31.00;;;;;;5083950;28;20229;-72
2021/03/12 12:05:50;;;;;;;1.73;1.47;;;9.10;29.40;;;;;;5087831;28;20261;-72
2021/03/12 12:08:16;;;;;;;2.83;2.40;;;9.30;28.00;;;;;;5055198;28;20198;-72
2021/03/12 12:10:41;;;;;;;3.77;2.20;;;9.50;27.20;;;;;;5049756;28;20294;-70
2021/03/12 12:13:07;;;;;;;2.80;2.60;;;9.70;28.50;;;;;;5049782;28;20236;-71
2021/03/12 12:15:32;;;;;;;8.80;2.93;;;9.80;26.20;;;;;;5049863;28;20221;-71
2021/03/12 12:18:05;;;;;;;2.90;2.20;;;9.80;25.60;;;;;;5050430;28;20187;-72
2021/03/12 12:20:31;;;;;;;3.70;2.80;;;9.80;26.70;;;;;;5062224;28;20187;-71
2021/03/12 12:22:57;;;;;;;6.43;3.10;;;9.80;25.30;;;;;;5072397;28;20431;-72
2021/03/12 12:25:23;;;;;;;3.40;3.10;;;10.00;25.50;;;;;;5061259;28;20535;-72
2021/03/12 12:27:49;;;;;;;3.87;3.53;;;10.20;22.70;;;;;;5071582;28;20440;-71
2021/03/12 12:30:15;;;;;;;7.60;4.80;;;10.30;23.40;;;;;;5072783;28;20473;-71
2021/03/12 12:32:40;;;;;;;5.50;4.27;;;10.50;20.80;;;;;;5073228;28;20587;-71
2021/03/12 12:35:07;;;;;;;6.30;5.77;;;10.60;22.40;;;;;;5073218;28;20464;-71
2021/03/12 12:37:33;;;;;;;4.53;4.23;;;10.90;20.30;;;;;;5073328;28;20179;-71
2021/03/12 12:39:59;;;;;;;4.80;4.50;;;11.10;19.20;;;;;;5073466;28;20418;-72
2021/03/12 12:42:24;;;;;;;5.17;4.97;;;11.20;18.80;;;;;;5074168;28;20539;-72
2021/03/12 12:44:50;;;;;;;11.53;6.37;;;11.50;17.80;;;;;;5073937;28;20210;-72
2021/03/12 12:47:16;;;;;;;5.57;5.27;;;11.70;15.50;;;;;;5073502;28;20194;-72
2021/03/12 12:49:42;;;;;;;6.13;5.73;;;11.70;14.60;;;;;;5072813;28;20267;-72
2021/03/12 12:52:07;;;;;;;6.67;6.30;;;11.80;13.40;;;;;;5074007;28;20213;-72
2021/03/12 12:54:33;;;;;;;7.20;6.60;;;11.90;12.30;;;;;;5073738;28;20240;-72
2021/03/12 12:56:58;;;;;;;6.90;6.50;;;11.90;14.20;;;;;;5063772;28;20646;-72
2021/03/12 12:59:25;;;;;;;6.63;6.33;;;12.10;13.80;;;;;;5053000;28;20186;-72
2021/03/12 13:01:50;;;;;;;7.40;6.80;;;12.10;13.30;;;;;;5053476;28;20427;-72